Aviation Digital Data Service (ADDS)

Output produced by TAFs form (1421 UTC 03 May 2016)
found at http://aviationweather.gov/adds/tafs/
 
KGJT 031120Z 0312/0412 04003KT P6SM SKC 
     FM032000 25005KT P6SM FEW250 
     FM032300 35005KT P6SM FEW250 
     FM040200 05005KT P6SM FEW250 
     FM041000 11008KT P6SM SKC